Time,TemperatureF,DewpointF,PressureIn,WindDirection,WindDirectionDegrees,WindSpeedMPH,WindSpeedGustMPH,Humidity,HourlyPrecipIn,Conditions,Clouds,dailyrainin,SoftwareType,DateUTC
2013-09-30 00:04:00,51.4,47.9,29.37,SW,225,0.9,17.9,87,0.00,,,0.00,NetBSD+Arduino,2013-09-30 07:04:00,
2013-09-30 00:09:00,51.3,47.9,29.37,SW,225,9.5,17.9,88,0.00,,,0.00,NetBSD+Arduino,2013-09-30 07:09:00,
2013-09-30 00:14:00,51.3,47.2,29.36,SW,225,7.5,22.4,86,0.00,,,0.00,NetBSD+Arduino,2013-09-30 07:14:00,
2013-09-30 00:19:00,51.2,46.8,29.37,SW,225,7.2,17.9,84,0.00,,,0.00,NetBSD+Arduino,2013-09-30 07:19:00,
2013-09-30 00:24:00,50.8,45.9,29.37,SW,225,9.3,32.8,83,0.00,,,0.00,NetBSD+Arduino,2013-09-30 07:24:00,
2013-09-30 00:29:00,50.8,45.6,29.38,South,180,8.4,19.4,82,0.00,,,0.00,NetBSD+Arduino,2013-09-30 07:29:00,
2013-09-30 00:35:00,50.5,45.0,29.38,SW,225,11.6,19.4,81,0.00,,,0.00,NetBSD+Arduino,2013-09-30 07:35:00,
2013-09-30 00:41:00,50.3,45.1,29.39,SW,225,5.4,16.4,82,0.00,,,0.00,NetBSD+Arduino,2013-09-30 07:41:00,
2013-09-30 00:46:00,50.2,45.0,29.39,SW,225,4.8,19.4,82,0.00,,,0.00,NetBSD+Arduino,2013-09-30 07:46:00,
2013-09-30 00:51:00,50.2,45.6,29.39,SW,225,3.6,14.9,84,0.00,,,0.00,NetBSD+Arduino,2013-09-30 07:51:00,
2013-09-30 00:56:00,50.0,45.7,29.39,SW,225,5.5,14.9,85,0.00,,,0.00,NetBSD+Arduino,2013-09-30 07:56:00,
2013-09-30 01:01:00,50.0,45.8,29.39,SW,225,10.4,16.4,85,0.00,,,0.00,NetBSD+Arduino,2013-09-30 08:01:00,
2013-09-30 01:06:00,50.0,45.4,29.40,SW,225,3.9,14.9,84,0.00,,,0.00,NetBSD+Arduino,2013-09-30 08:06:00,
2013-09-30 01:11:00,49.8,45.7,29.40,SW,225,10.4,17.9,85,0.00,,,0.00,NetBSD+Arduino,2013-09-30 08:11:00,
2013-09-30 01:16:00,49.8,46.7,29.40,SW,225,6.9,20.9,88,0.00,,,0.00,NetBSD+Arduino,2013-09-30 08:16:00,
2013-09-30 01:21:00,49.8,47.2,29.40,SW,225,6.0,14.9,90,0.00,,,0.00,NetBSD+Arduino,2013-09-30 08:21:00,
2013-09-30 01:26:00,49.8,46.9,29.40,West,270,3.0,20.9,89,0.00,,,0.00,NetBSD+Arduino,2013-09-30 08:26:00,
2013-09-30 01:31:00,49.8,46.8,29.40,SW,225,9.3,11.9,89,0.00,,,0.00,NetBSD+Arduino,2013-09-30 08:31:00,
2013-09-30 01:36:00,49.7,46.5,29.41,SW,225,6.0,14.9,88,0.00,,,0.00,NetBSD+Arduino,2013-09-30 08:36:00,
2013-09-30 01:41:00,49.7,46.4,29.41,SW,225,8.4,16.4,88,0.00,,,0.00,NetBSD+Arduino,2013-09-30 08:41:00,
2013-09-30 01:46:00,49.6,45.8,29.43,SW,225,3.6,16.4,86,0.00,,,0.00,NetBSD+Arduino,2013-09-30 08:46:00,
2013-09-30 01:51:00,49.7,45.8,29.44,SW,225,13.7,22.4,86,0.00,,,0.00,NetBSD+Arduino,2013-09-30 08:51:00,
2013-09-30 01:56:00,49.6,45.6,29.44,South,180,7.8,16.4,85,0.00,,,0.00,NetBSD+Arduino,2013-09-30 08:56:00,
2013-09-30 02:01:00,49.7,46.2,29.44,SW,225,3.6,17.9,87,0.00,,,0.00,NetBSD+Arduino,2013-09-30 09:01:00,
2013-09-30 02:06:00,49.5,46.2,29.45,SW,225,4.2,16.4,88,0.00,,,0.00,NetBSD+Arduino,2013-09-30 09:06:00,
2013-09-30 02:11:00,49.2,46.5,29.44,SW,225,8.1,17.9,90,0.00,,,0.00,NetBSD+Arduino,2013-09-30 09:11:00,
2013-09-30 02:16:00,48.8,46.8,29.44,SW,225,11.3,13.4,92,0.00,,,0.00,NetBSD+Arduino,2013-09-30 09:16:00,
2013-09-30 02:21:00,48.6,46.6,29.44,South,180,5.4,19.4,92,0.00,,,0.00,NetBSD+Arduino,2013-09-30 09:21:00,
2013-09-30 02:26:00,48.5,46.8,29.44,SW,225,7.8,17.9,93,0.00,,,0.00,NetBSD+Arduino,2013-09-30 09:26:00,
2013-09-30 02:31:00,48.5,46.9,29.44,SW,225,10.1,16.4,94,0.00,,,0.00,NetBSD+Arduino,2013-09-30 09:31:00,
2013-09-30 02:36:00,48.3,46.5,29.44,SW,225,4.8,19.4,93,0.00,,,0.00,NetBSD+Arduino,2013-09-30 09:36:00,
2013-09-30 02:41:00,48.2,46.5,29.43,SW,225,4.2,16.4,93,0.00,,,0.00,NetBSD+Arduino,2013-09-30 09:41:00,
2013-09-30 02:46:00,48.2,46.6,29.43,SW,225,7.2,19.4,94,0.00,,,0.00,NetBSD+Arduino,2013-09-30 09:46:00,
2013-09-30 02:52:00,48.2,46.5,29.42,SW,225,10.7,20.9,93,0.00,,,0.00,NetBSD+Arduino,2013-09-30 09:52:00,
2013-09-30 02:57:00,48.4,46.4,29.42,SW,225,8.7,19.4,92,0.00,,,0.00,NetBSD+Arduino,2013-09-30 09:57:00,
2013-09-30 03:02:00,48.5,46.5,29.42,South,180,4.2,17.9,92,0.00,,,0.00,NetBSD+Arduino,2013-09-30 10:02:00,
2013-09-30 03:07:00,48.5,46.5,29.42,SW,225,3.6,19.4,92,0.00,,,0.00,NetBSD+Arduino,2013-09-30 10:07:00,
2013-09-30 03:12:00,48.7,46.6,29.42,SW,225,7.2,19.4,92,0.00,,,0.00,NetBSD+Arduino,2013-09-30 10:12:00,
2013-09-30 03:17:00,48.7,46.7,29.43,South,180,2.1,13.4,92,0.00,,,0.00,NetBSD+Arduino,2013-09-30 10:17:00,
2013-09-30 03:23:00,48.7,47.0,29.44,South,180,8.1,13.4,93,0.00,,,0.00,NetBSD+Arduino,2013-09-30 10:23:00,
2013-09-30 03:28:00,48.8,47.1,29.44,SW,225,11.6,20.9,93,0.00,,,0.00,NetBSD+Arduino,2013-09-30 10:28:00,
2013-09-30 03:33:00,49.0,47.5,29.44,South,180,3.9,14.9,94,0.00,,,0.00,NetBSD+Arduino,2013-09-30 10:33:00,
2013-09-30 03:38:00,49.1,47.6,29.44,SW,225,6.6,16.4,94,0.00,,,0.00,NetBSD+Arduino,2013-09-30 10:38:00,
2013-09-30 03:43:00,49.1,47.6,29.44,SW,225,3.3,9.0,94,0.00,,,0.00,NetBSD+Arduino,2013-09-30 10:43:00,
2013-09-30 03:48:00,49.0,47.6,29.44,SW,225,7.2,14.9,94,0.00,,,0.00,NetBSD+Arduino,2013-09-30 10:48:00,
2013-09-30 03:53:00,49.1,47.6,29.45,SW,225,3.9,9.0,94,0.00,,,0.00,NetBSD+Arduino,2013-09-30 10:53:00,
2013-09-30 03:59:00,49.2,47.6,29.45,SW,225,5.7,10.4,94,0.00,,,0.00,NetBSD+Arduino,2013-09-30 10:59:00,
2013-09-30 04:04:00,49.4,47.9,29.46,SW,225,5.4,13.4,94,0.00,,,0.00,NetBSD+Arduino,2013-09-30 11:04:00,
2013-09-30 04:09:00,49.5,47.8,29.46,SW,225,6.3,10.4,93,0.00,,,0.00,NetBSD+Arduino,2013-09-30 11:09:00,
2013-09-30 04:14:00,49.7,48.1,29.46,SW,225,6.3,11.9,94,0.00,,,0.00,NetBSD+Arduino,2013-09-30 11:14:00,
2013-09-30 04:19:00,49.8,48.3,29.46,SW,225,5.4,13.4,94,0.00,,,0.00,NetBSD+Arduino,2013-09-30 11:19:00,
2013-09-30 04:24:00,49.5,48.3,29.46,SW,225,5.4,11.9,95,0.00,,,0.00,NetBSD+Arduino,2013-09-30 11:24:00,
2013-09-30 04:29:00,49.4,48.5,29.46,South,180,5.1,10.4,96,0.00,,,0.00,NetBSD+Arduino,2013-09-30 11:29:00,
2013-09-30 04:34:00,49.3,48.5,29.45,South,180,8.1,13.4,96,0.02,,,0.02,NetBSD+Arduino,2013-09-30 11:34:00,
2013-09-30 04:39:00,49.2,48.5,29.45,SW,225,5.1,14.9,97,0.02,,,0.02,NetBSD+Arduino,2013-09-30 11:39:00,
2013-09-30 04:45:00,49.4,48.8,29.46,SW,225,3.6,11.9,97,0.02,,,0.02,NetBSD+Arduino,2013-09-30 11:45:00,
2013-09-30 04:50:00,49.4,48.8,29.46,NW,314,2.4,10.4,97,0.02,,,0.02,NetBSD+Arduino,2013-09-30 11:50:00,
2013-09-30 04:55:00,49.4,48.8,29.46,South,180,5.7,10.4,97,0.02,,,0.02,NetBSD+Arduino,2013-09-30 11:55:00,
2013-09-30 05:00:00,49.4,48.8,29.46,SW,225,4.5,7.5,97,0.02,,,0.02,NetBSD+Arduino,2013-09-30 12:00:00,
2013-09-30 05:05:00,49.4,48.8,29.46,SW,225,1.5,9.0,97,0.02,,,0.02,NetBSD+Arduino,2013-09-30 12:05:00,
2013-09-30 05:10:00,49.4,48.8,29.46,South,180,0.6,11.9,97,0.02,,,0.02,NetBSD+Arduino,2013-09-30 12:10:00,
2013-09-30 05:15:00,49.5,48.9,29.47,West,270,1.2,7.5,97,0.02,,,0.02,NetBSD+Arduino,2013-09-30 12:15:00,
2013-09-30 05:20:00,49.5,48.9,29.47,SW,225,3.0,9.0,97,0.02,,,0.02,NetBSD+Arduino,2013-09-30 12:20:00,
2013-09-30 05:25:00,49.6,49.0,29.47,SW,225,6.3,10.4,97,0.02,,,0.02,NetBSD+Arduino,2013-09-30 12:25:00,
2013-09-30 05:30:00,49.6,48.9,29.46,South,180,5.4,9.0,97,0.02,,,0.02,NetBSD+Arduino,2013-09-30 12:30:00,
2013-09-30 05:35:00,49.7,49.0,29.47,SW,225,3.3,9.0,97,0.00,,,0.02,NetBSD+Arduino,2013-09-30 12:35:00,
2013-09-30 05:40:00,49.7,49.0,29.47,SW,225,6.6,10.4,97,0.00,,,0.02,NetBSD+Arduino,2013-09-30 12:40:00,
2013-09-30 05:45:00,49.7,48.9,29.47,South,180,2.1,9.0,97,0.00,,,0.02,NetBSD+Arduino,2013-09-30 12:45:00,
2013-09-30 05:50:00,49.8,48.9,29.46,SW,225,4.2,13.4,97,0.00,,,0.02,NetBSD+Arduino,2013-09-30 12:50:00,
2013-09-30 05:55:00,49.8,48.7,29.47,SW,225,5.1,11.9,96,0.00,,,0.02,NetBSD+Arduino,2013-09-30 12:55:00,
2013-09-30 06:00:00,49.8,48.6,29.47,South,180,7.5,10.4,95,0.00,,,0.02,NetBSD+Arduino,2013-09-30 13:00:00,
2013-09-30 06:05:00,49.8,48.3,29.49,South,180,4.2,11.9,94,0.00,,,0.02,NetBSD+Arduino,2013-09-30 13:05:00,
2013-09-30 06:10:00,50.0,48.7,29.48,SW,225,5.4,13.4,95,0.00,,,0.02,NetBSD+Arduino,2013-09-30 13:10:00,
2013-09-30 06:15:00,50.0,48.6,29.49,SW,225,5.1,9.0,95,0.00,,,0.02,NetBSD+Arduino,2013-09-30 13:15:00,
2013-09-30 06:20:00,50.0,48.3,29.49,South,180,8.7,11.9,93,0.00,,,0.02,NetBSD+Arduino,2013-09-30 13:20:00,
2013-09-30 06:25:00,50.0,48.2,29.48,SW,225,6.0,11.9,93,0.00,,,0.02,NetBSD+Arduino,2013-09-30 13:25:00,
2013-09-30 06:30:00,50.2,48.0,29.49,South,180,3.0,10.4,92,0.00,,,0.02,NetBSD+Arduino,2013-09-30 13:30:00,
2013-09-30 06:35:00,50.2,48.3,29.49,SW,225,0.9,9.0,93,0.00,,,0.02,NetBSD+Arduino,2013-09-30 13:35:00,
2013-09-30 06:40:00,50.2,48.3,29.50,SW,225,7.8,11.9,93,0.00,,,0.02,NetBSD+Arduino,2013-09-30 13:40:00,
2013-09-30 06:45:00,50.4,48.2,29.50,South,180,6.3,13.4,92,0.00,,,0.02,NetBSD+Arduino,2013-09-30 13:45:00,
2013-09-30 06:50:00,50.5,48.3,29.51,SW,225,3.0,13.4,91,0.00,,,0.02,NetBSD+Arduino,2013-09-30 13:50:00,
2013-09-30 06:55:00,50.5,48.2,29.51,SW,225,4.8,16.4,91,0.00,,,0.02,NetBSD+Arduino,2013-09-30 13:55:00,
2013-09-30 07:00:00,50.5,48.3,29.51,South,180,5.1,13.4,91,0.00,,,0.02,NetBSD+Arduino,2013-09-30 14:00:00,
2013-09-30 07:05:00,50.4,48.2,29.50,SW,225,8.1,13.4,92,0.00,,,0.02,NetBSD+Arduino,2013-09-30 14:05:00,
2013-09-30 07:10:00,50.4,48.4,29.50,South,180,3.6,16.4,92,0.00,,,0.02,NetBSD+Arduino,2013-09-30 14:10:00,
2013-09-30 07:15:00,50.2,48.4,29.51,SW,225,10.4,11.9,93,0.00,,,0.02,NetBSD+Arduino,2013-09-30 14:15:00,
2013-09-30 07:20:00,50.2,48.3,29.52,South,180,3.6,13.4,93,0.00,,,0.02,NetBSD+Arduino,2013-09-30 14:20:00,
2013-09-30 07:25:00,50.2,48.4,29.52,SW,225,6.9,11.9,93,0.00,,,0.02,NetBSD+Arduino,2013-09-30 14:25:00,
2013-09-30 07:30:00,50.1,48.8,29.52,South,180,2.7,9.0,95,0.00,,,0.02,NetBSD+Arduino,2013-09-30 14:30:00,
2013-09-30 07:35:00,50.0,48.5,29.52,SW,225,2.4,16.4,94,0.00,,,0.02,NetBSD+Arduino,2013-09-30 14:35:00,
2013-09-30 07:40:00,49.8,48.5,29.53,SW,225,2.4,10.4,95,0.00,,,0.02,NetBSD+Arduino,2013-09-30 14:40:00,
2013-09-30 07:45:00,49.7,48.6,29.52,SE,135,3.0,10.4,96,0.00,,,0.02,NetBSD+Arduino,2013-09-30 14:45:00,
2013-09-30 07:50:00,49.7,48.9,29.52,SW,225,6.3,13.4,97,0.00,,,0.02,NetBSD+Arduino,2013-09-30 14:50:00,
2013-09-30 07:55:00,49.7,48.9,29.53,South,180,11.3,13.4,97,0.00,,,0.02,NetBSD+Arduino,2013-09-30 14:55:00,
2013-09-30 08:00:00,49.9,49.1,29.53,SW,225,4.8,11.9,97,0.00,,,0.02,NetBSD+Arduino,2013-09-30 15:00:00,
2013-09-30 08:05:00,50.0,49.2,29.53,SW,225,4.2,11.9,97,0.00,,,0.02,NetBSD+Arduino,2013-09-30 15:05:00,
2013-09-30 08:10:00,50.1,49.5,29.54,South,180,2.7,10.4,97,0.00,,,0.02,NetBSD+Arduino,2013-09-30 15:10:00,
2013-09-30 08:15:00,50.1,49.5,29.54,SW,225,2.7,9.0,97,0.00,,,0.02,NetBSD+Arduino,2013-09-30 15:15:00,
2013-09-30 08:20:00,50.1,49.6,29.54,SW,225,7.7,16.4,98,0.00,,,0.02,NetBSD+Arduino,2013-09-30 15:20:00,
2013-09-30 08:25:00,50.2,49.7,29.55,SW,225,7.2,10.4,98,0.00,,,0.02,NetBSD+Arduino,2013-09-30 15:25:00,
2013-09-30 08:30:00,50.3,49.8,29.56,South,180,5.4,11.9,97,0.00,,,0.02,NetBSD+Arduino,2013-09-30 15:30:00,
2013-09-30 08:35:00,50.5,49.9,29.57,West,270,1.8,10.4,97,0.00,,,0.02,NetBSD+Arduino,2013-09-30 15:35:00,
2013-09-30 08:40:00,50.7,49.9,29.57,South,180,5.4,9.0,97,0.00,,,0.02,NetBSD+Arduino,2013-09-30 15:40:00,
2013-09-30 08:45:00,50.8,49.6,29.56,SW,225,3.0,17.9,95,0.00,,,0.02,NetBSD+Arduino,2013-09-30 15:45:00,
2013-09-30 08:50:00,51.0,50.0,29.57,SW,225,6.0,13.4,96,0.00,,,0.02,NetBSD+Arduino,2013-09-30 15:50:00,
2013-09-30 08:55:00,51.0,49.8,29.57,South,180,2.7,19.4,95,0.00,,,0.02,NetBSD+Arduino,2013-09-30 15:55:00,
2013-09-30 09:00:00,51.2,50.0,29.57,SW,225,0.9,16.4,95,0.00,,,0.02,NetBSD+Arduino,2013-09-30 16:00:00,
2013-09-30 09:05:00,51.3,50.1,29.58,SW,225,4.5,11.9,95,0.00,,,0.02,NetBSD+Arduino,2013-09-30 16:05:00,
2013-09-30 09:10:00,51.8,50.3,29.57,South,180,8.7,19.4,94,0.00,,,0.02,NetBSD+Arduino,2013-09-30 16:10:00,
2013-09-30 09:15:00,51.9,50.3,29.58,SW,225,3.6,14.9,94,0.00,,,0.02,NetBSD+Arduino,2013-09-30 16:15:00,
2013-09-30 09:20:00,51.8,50.4,29.59,SW,225,2.7,19.4,94,0.00,,,0.02,NetBSD+Arduino,2013-09-30 16:20:00,
2013-09-30 09:25:00,51.7,50.3,29.59,SW,225,1.8,11.9,94,0.00,,,0.02,NetBSD+Arduino,2013-09-30 16:25:00,
2013-09-30 09:30:00,51.8,50.4,29.59,SW,225,9.5,17.9,94,0.00,,,0.02,NetBSD+Arduino,2013-09-30 16:30:00,
2013-09-30 09:35:00,52.0,50.3,29.59,SW,225,4.2,14.9,94,0.00,,,0.02,NetBSD+Arduino,2013-09-30 16:35:00,
2013-09-30 09:40:00,53.7,51.7,29.60,South,180,7.8,11.9,92,0.00,,,0.02,NetBSD+Arduino,2013-09-30 16:40:00,
2013-09-30 09:45:00,55.0,52.0,29.61,South,180,3.0,14.9,89,0.00,,,0.02,NetBSD+Arduino,2013-09-30 16:45:00,
2013-09-30 09:50:00,54.8,51.8,29.61,SW,225,3.0,13.4,89,0.00,,,0.02,NetBSD+Arduino,2013-09-30 16:50:00,
2013-09-30 09:55:00,54.6,51.5,29.62,SW,225,7.8,17.9,89,0.00,,,0.02,NetBSD+Arduino,2013-09-30 16:55:00,
2013-09-30 10:00:00,54.3,51.3,29.62,SW,225,12.3,13.4,89,0.00,,,0.02,NetBSD+Arduino,2013-09-30 17:00:00,
2013-09-30 10:05:00,55.6,52.8,29.62,West,270,7.5,16.4,90,0.00,,,0.02,NetBSD+Arduino,2013-09-30 17:05:00,
2013-09-30 10:10:00,56.3,51.6,29.62,South,180,9.8,14.9,84,0.00,,,0.02,NetBSD+Arduino,2013-09-30 17:10:00,
2013-09-30 10:15:00,57.1,53.4,29.62,West,270,2.4,10.4,87,0.00,,,0.02,NetBSD+Arduino,2013-09-30 17:15:00,
2013-09-30 10:20:00,57.5,53.0,29.63,SW,225,9.0,11.9,84,0.00,,,0.02,NetBSD+Arduino,2013-09-30 17:20:00,
2013-09-30 10:25:00,56.9,51.8,29.62,West,270,3.0,14.9,82,0.00,,,0.02,NetBSD+Arduino,2013-09-30 17:25:00,
2013-09-30 10:30:00,56.6,52.3,29.62,SW,225,1.2,9.0,85,0.00,,,0.02,NetBSD+Arduino,2013-09-30 17:30:00,
2013-09-30 10:35:00,56.6,51.5,29.63,SW,225,3.0,16.4,82,0.00,,,0.02,NetBSD+Arduino,2013-09-30 17:35:00,
2013-09-30 10:40:00,56.8,52.0,29.63,SW,225,4.8,13.4,83,0.00,,,0.02,NetBSD+Arduino,2013-09-30 17:40:00,
2013-09-30 10:45:00,56.4,52.0,29.64,SW,225,9.0,25.4,85,0.00,,,0.02,NetBSD+Arduino,2013-09-30 17:45:00,
2013-09-30 10:50:00,57.1,52.1,29.64,SW,225,7.5,17.9,83,0.00,,,0.02,NetBSD+Arduino,2013-09-30 17:50:00,
2013-09-30 10:55:00,57.3,52.2,29.64,SW,225,1.9,11.9,83,0.00,,,0.02,NetBSD+Arduino,2013-09-30 17:55:00,
2013-09-30 11:00:00,57.2,51.8,29.64,West,270,5.1,11.9,82,0.00,,,0.02,NetBSD+Arduino,2013-09-30 18:00:00,
2013-09-30 11:05:00,57.0,51.8,29.65,SW,225,1.8,16.4,82,0.00,,,0.02,NetBSD+Arduino,2013-09-30 18:05:00,
2013-09-30 11:10:00,56.9,51.3,29.66,SW,225,3.0,13.4,81,0.00,,,0.02,NetBSD+Arduino,2013-09-30 18:10:00,
2013-09-30 11:15:00,56.3,51.2,29.66,SW,225,5.7,17.9,82,0.00,,,0.02,NetBSD+Arduino,2013-09-30 18:15:00,
2013-09-30 11:20:00,56.0,51.6,29.66,South,180,6.0,13.4,85,0.00,,,0.02,NetBSD+Arduino,2013-09-30 18:20:00,
2013-09-30 11:25:00,55.7,51.2,29.66,SW,225,3.6,13.4,84,0.00,,,0.02,NetBSD+Arduino,2013-09-30 18:25:00,
2013-09-30 11:30:00,55.3,52.0,29.67,SW,225,3.3,14.9,88,0.00,,,0.02,NetBSD+Arduino,2013-09-30 18:30:00,
2013-09-30 11:35:00,55.0,52.0,29.67,SW,225,3.0,14.9,89,0.00,,,0.02,NetBSD+Arduino,2013-09-30 18:35:00,
2013-09-30 11:40:00,54.4,51.7,29.67,SW,225,14.6,17.9,90,0.00,,,0.02,NetBSD+Arduino,2013-09-30 18:40:00,
2013-09-30 11:45:00,54.3,51.4,29.66,SW,225,6.0,17.9,89,0.00,,,0.02,NetBSD+Arduino,2013-09-30 18:45:00,
2013-09-30 11:50:00,54.0,51.2,29.67,South,180,5.7,17.9,90,0.02,,,0.03,NetBSD+Arduino,2013-09-30 18:50:00,
2013-09-30 11:55:00,54.4,51.3,29.67,SW,225,1.5,13.4,89,0.02,,,0.03,NetBSD+Arduino,2013-09-30 18:55:00,
2013-09-30 12:00:00,53.9,50.4,29.69,SW,225,2.4,14.9,87,0.02,,,0.03,NetBSD+Arduino,2013-09-30 19:00:00,
2013-09-30 12:05:00,53.1,49.6,29.69,SW,225,4.5,13.4,88,0.02,,,0.03,NetBSD+Arduino,2013-09-30 19:05:00,
2013-09-30 12:10:00,51.8,48.4,29.69,SW,225,3.9,16.4,88,0.02,,,0.03,NetBSD+Arduino,2013-09-30 19:10:00,
2013-09-30 12:15:00,51.0,48.7,29.69,SW,225,6.6,22.4,91,0.02,,,0.03,NetBSD+Arduino,2013-09-30 19:15:00,
2013-09-30 12:20:00,50.5,48.6,29.69,SW,225,4.5,13.4,93,0.02,,,0.03,NetBSD+Arduino,2013-09-30 19:20:00,
2013-09-30 12:25:00,50.2,48.8,29.68,SW,225,4.5,14.9,94,0.02,,,0.03,NetBSD+Arduino,2013-09-30 19:25:00,
2013-09-30 12:30:00,50.3,49.3,29.68,SW,225,4.8,9.0,96,0.02,,,0.03,NetBSD+Arduino,2013-09-30 19:30:00,
2013-09-30 12:35:00,51.2,50.0,29.69,South,180,5.7,13.4,95,0.02,,,0.03,NetBSD+Arduino,2013-09-30 19:35:00,
2013-09-30 12:40:00,51.7,49.6,29.69,SW,225,9.5,13.4,92,0.03,,,0.05,NetBSD+Arduino,2013-09-30 19:40:00,
2013-09-30 12:45:00,51.8,50.4,29.70,SW,225,3.3,17.9,94,0.03,,,0.05,NetBSD+Arduino,2013-09-30 19:45:00,
2013-09-30 12:50:00,52.5,50.2,29.70,SW,225,6.9,14.9,91,0.02,,,0.05,NetBSD+Arduino,2013-09-30 19:50:00,
2013-09-30 12:55:00,52.8,50.3,29.70,South,180,3.4,19.4,90,0.02,,,0.05,NetBSD+Arduino,2013-09-30 19:55:00,
2013-09-30 13:00:00,53.0,49.7,29.71,North,0,2.1,16.4,88,0.02,,,0.05,NetBSD+Arduino,2013-09-30 20:00:00,
2013-09-30 13:05:00,53.3,50.3,29.71,SW,225,6.6,14.9,89,0.02,,,0.05,NetBSD+Arduino,2013-09-30 20:05:00,
2013-09-30 13:10:00,53.1,50.3,29.71,NW,314,6.0,17.9,90,0.02,,,0.05,NetBSD+Arduino,2013-09-30 20:10:00,
2013-09-30 13:15:00,53.0,50.2,29.72,South,180,6.3,17.9,90,0.02,,,0.05,NetBSD+Arduino,2013-09-30 20:15:00,
2013-09-30 13:20:00,53.1,50.2,29.72,SW,225,7.8,14.9,90,0.02,,,0.05,NetBSD+Arduino,2013-09-30 20:20:00,
2013-09-30 13:25:00,54.4,50.7,29.72,SW,225,17.9,20.9,87,0.02,,,0.05,NetBSD+Arduino,2013-09-30 20:25:00,
2013-09-30 13:31:00,55.3,50.7,29.72,SW,225,13.4,17.9,84,0.02,,,0.05,NetBSD+Arduino,2013-09-30 20:31:00,
2013-09-30 13:36:00,54.6,50.2,29.72,SW,225,2.1,14.9,85,0.02,,,0.05,NetBSD+Arduino,2013-09-30 20:36:00,
2013-09-30 13:41:00,55.9,51.3,29.72,SW,225,5.1,13.4,84,0.00,,,0.05,NetBSD+Arduino,2013-09-30 20:41:00,
2013-09-30 13:46:00,57.2,52.3,29.72,West,267,2.4,13.4,83,0.00,,,0.05,NetBSD+Arduino,2013-09-30 20:46:00,
2013-09-30 13:52:00,57.3,50.9,29.72,SW,225,3.6,14.9,79,0.00,,,0.05,NetBSD+Arduino,2013-09-30 20:52:00,
2013-09-30 13:57:00,58.2,51.0,29.72,West,270,3.6,14.9,76,0.00,,,0.05,NetBSD+Arduino,2013-09-30 20:57:00,
2013-09-30 14:03:00,57.5,50.3,29.73,West,270,6.0,16.4,76,0.00,,,0.05,NetBSD+Arduino,2013-09-30 21:03:00,
2013-09-30 14:08:00,56.3,49.9,29.73,SW,225,8.7,13.4,78,0.00,,,0.05,NetBSD+Arduino,2013-09-30 21:08:00,
2013-09-30 14:13:00,55.8,49.8,29.73,SW,225,5.1,14.9,80,0.00,,,0.05,NetBSD+Arduino,2013-09-30 21:13:00,
2013-09-30 14:18:00,56.1,50.4,29.73,SW,225,3.6,11.9,81,0.00,,,0.05,NetBSD+Arduino,2013-09-30 21:18:00,
2013-09-30 14:23:00,56.2,50.7,29.73,SW,225,9.3,14.9,82,0.00,,,0.05,NetBSD+Arduino,2013-09-30 21:23:00,
2013-09-30 14:28:00,56.3,50.5,29.74,SW,225,6.3,16.4,80,0.00,,,0.05,NetBSD+Arduino,2013-09-30 21:28:00,
2013-09-30 14:33:00,56.1,50.7,29.74,SW,225,7.5,16.4,82,0.00,,,0.05,NetBSD+Arduino,2013-09-30 21:33:00,
2013-09-30 14:38:00,55.3,49.6,29.75,SW,225,7.5,19.4,81,0.00,,,0.05,NetBSD+Arduino,2013-09-30 21:38:00,
2013-09-30 14:43:00,55.1,50.3,29.74,NE,45,3.0,11.9,84,0.00,,,0.05,NetBSD+Arduino,2013-09-30 21:43:00,
2013-09-30 14:48:00,55.5,50.5,29.75,NW,315,3.9,16.4,83,0.00,,,0.05,NetBSD+Arduino,2013-09-30 21:48:00,
2013-09-30 14:53:00,56.1,51.0,29.75,West,270,3.9,14.9,82,0.00,,,0.05,NetBSD+Arduino,2013-09-30 21:53:00,
2013-09-30 14:58:00,56.0,50.7,29.75,SW,225,2.7,17.9,82,0.00,,,0.05,NetBSD+Arduino,2013-09-30 21:58:00,
2013-09-30 15:03:00,55.4,50.0,29.76,SW,225,5.1,17.9,81,0.00,,,0.05,NetBSD+Arduino,2013-09-30 22:03:00,
2013-09-30 15:08:00,55.9,50.7,29.76,SW,225,3.9,13.4,82,0.00,,,0.05,NetBSD+Arduino,2013-09-30 22:08:00,
2013-09-30 15:13:00,56.6,50.6,29.76,West,270,6.3,14.9,80,0.00,,,0.05,NetBSD+Arduino,2013-09-30 22:13:00,
2013-09-30 15:18:00,56.2,49.7,29.75,SW,225,5.1,22.4,78,0.00,,,0.05,NetBSD+Arduino,2013-09-30 22:18:00,
2013-09-30 15:23:00,55.6,48.8,29.75,West,270,1.5,20.9,78,0.00,,,0.05,NetBSD+Arduino,2013-09-30 22:23:00,
2013-09-30 15:28:00,55.5,49.2,29.75,SW,225,7.2,11.9,79,0.00,,,0.05,NetBSD+Arduino,2013-09-30 22:28:00,
2013-09-30 15:33:00,56.2,49.9,29.75,West,270,8.1,19.4,79,0.00,,,0.05,NetBSD+Arduino,2013-09-30 22:33:00,
2013-09-30 15:38:00,56.4,50.5,29.75,SW,225,4.5,17.9,80,0.00,,,0.05,NetBSD+Arduino,2013-09-30 22:38:00,
2013-09-30 15:43:00,56.4,49.5,29.75,SW,225,14.3,20.9,77,0.00,,,0.05,NetBSD+Arduino,2013-09-30 22:43:00,
2013-09-30 15:48:00,56.0,49.7,29.76,SW,225,13.4,19.4,79,0.00,,,0.05,NetBSD+Arduino,2013-09-30 22:48:00,
2013-09-30 15:53:00,55.9,49.7,29.76,SW,225,9.8,13.4,79,0.00,,,0.05,NetBSD+Arduino,2013-09-30 22:53:00,
2013-09-30 15:58:00,55.7,49.0,29.76,SW,225,5.7,17.9,78,0.00,,,0.05,NetBSD+Arduino,2013-09-30 22:58:00,
2013-09-30 16:03:00,55.7,49.6,29.77,SW,225,2.7,13.4,79,0.00,,,0.05,NetBSD+Arduino,2013-09-30 23:03:00,
2013-09-30 16:08:00,55.7,49.3,29.77,South,180,12.2,17.9,78,0.00,,,0.05,NetBSD+Arduino,2013-09-30 23:08:00,
2013-09-30 16:13:00,55.5,49.5,29.77,SW,225,10.4,13.4,80,0.00,,,0.05,NetBSD+Arduino,2013-09-30 23:13:00,
2013-09-30 16:18:00,55.2,49.3,29.77,SW,225,8.4,13.4,80,0.00,,,0.05,NetBSD+Arduino,2013-09-30 23:18:00,
2013-09-30 16:23:00,55.2,49.9,29.77,SW,225,7.0,20.9,82,0.00,,,0.05,NetBSD+Arduino,2013-09-30 23:23:00,
2013-09-30 16:28:00,55.2,50.1,29.77,SW,225,1.7,17.9,83,0.00,,,0.05,NetBSD+Arduino,2013-09-30 23:28:00,
2013-09-30 16:33:00,55.2,50.4,29.77,SW,225,5.7,13.4,83,0.00,,,0.05,NetBSD+Arduino,2013-09-30 23:33:00,
2013-09-30 16:38:00,55.0,49.4,29.77,West,270,2.1,14.9,81,0.00,,,0.05,NetBSD+Arduino,2013-09-30 23:38:00,
2013-09-30 16:43:00,54.6,48.5,29.77,SW,225,5.4,19.4,80,0.00,,,0.05,NetBSD+Arduino,2013-09-30 23:43:00,
2013-09-30 16:48:00,54.7,48.5,29.77,South,180,3.9,20.9,79,0.00,,,0.05,NetBSD+Arduino,2013-09-30 23:48:00,
2013-09-30 16:53:00,54.7,48.4,29.77,SW,225,4.2,19.4,79,0.00,,,0.05,NetBSD+Arduino,2013-09-30 23:53:00,
2013-09-30 16:58:00,54.6,48.3,29.77,SW,225,8.1,20.9,79,0.00,,,0.05,NetBSD+Arduino,2013-09-30 23:58:00,
2013-09-30 17:03:00,54.5,48.2,29.77,SW,225,8.1,17.9,79,0.00,,,0.05,NetBSD+Arduino,2013-10-01 00:03:00,
2013-09-30 17:08:00,54.2,48.0,29.77,North,0,6.7,17.9,79,0.00,,,0.05,NetBSD+Arduino,2013-10-01 00:08:00,
2013-09-30 17:13:00,54.1,47.8,29.77,SW,225,7.5,19.4,79,0.00,,,0.05,NetBSD+Arduino,2013-10-01 00:13:00,
2013-09-30 17:18:00,53.9,48.2,29.78,SW,225,3.3,13.4,80,0.00,,,0.05,NetBSD+Arduino,2013-10-01 00:18:00,
2013-09-30 17:23:00,54.2,47.9,29.79,SW,225,10.1,19.4,79,0.00,,,0.05,NetBSD+Arduino,2013-10-01 00:23:00,
2013-09-30 17:28:00,54.1,47.8,29.79,South,180,11.0,20.9,79,0.00,,,0.05,NetBSD+Arduino,2013-10-01 00:28:00,
2013-09-30 17:33:00,54.0,48.0,29.79,SW,225,12.8,14.9,80,0.00,,,0.05,NetBSD+Arduino,2013-10-01 00:33:00,
2013-09-30 17:38:00,54.0,48.1,29.79,SW,225,15.2,17.9,80,0.00,,,0.05,NetBSD+Arduino,2013-10-01 00:38:00,
2013-09-30 17:43:00,53.8,48.3,29.79,SW,225,6.6,14.9,81,0.00,,,0.05,NetBSD+Arduino,2013-10-01 00:43:00,
2013-09-30 17:48:00,53.8,48.5,29.79,SW,225,2.7,19.4,82,0.00,,,0.05,NetBSD+Arduino,2013-10-01 00:48:00,
2013-09-30 17:53:00,53.8,48.6,29.80,SW,225,8.1,20.9,82,0.00,,,0.05,NetBSD+Arduino,2013-10-01 00:53:00,
2013-09-30 17:58:00,53.6,48.5,29.80,SW,225,10.1,19.4,83,0.00,,,0.05,NetBSD+Arduino,2013-10-01 00:58:00,
2013-09-30 18:03:00,53.3,48.5,29.80,SW,225,3.4,19.4,83,0.00,,,0.05,NetBSD+Arduino,2013-10-01 01:03:00,
2013-09-30 18:08:00,53.3,48.7,29.80,SW,225,7.2,9.0,84,0.00,,,0.05,NetBSD+Arduino,2013-10-01 01:08:00,
2013-09-30 18:13:00,53.1,48.5,29.81,SW,225,4.2,10.4,84,0.00,,,0.05,NetBSD+Arduino,2013-10-01 01:13:00,
2013-09-30 18:18:00,52.9,47.6,29.80,SW,225,15.5,19.4,82,0.00,,,0.05,NetBSD+Arduino,2013-10-01 01:18:00,
2013-09-30 18:23:00,52.8,47.2,29.80,SW,225,5.1,22.4,81,0.00,,,0.05,NetBSD+Arduino,2013-10-01 01:23:00,
2013-09-30 18:28:00,52.6,47.0,29.80,SW,225,6.9,17.9,81,0.00,,,0.05,NetBSD+Arduino,2013-10-01 01:28:00,
2013-09-30 18:33:00,52.4,46.8,29.80,SW,225,6.0,13.4,81,0.00,,,0.05,NetBSD+Arduino,2013-10-01 01:33:00,
2013-09-30 18:38:00,52.1,46.4,29.82,SW,225,10.7,17.9,80,0.00,,,0.05,NetBSD+Arduino,2013-10-01 01:38:00,
2013-09-30 18:43:00,52.0,46.9,29.82,SW,225,6.3,17.9,82,0.00,,,0.05,NetBSD+Arduino,2013-10-01 01:43:00,
2013-09-30 18:48:00,51.8,47.4,29.82,SW,225,8.4,14.9,84,0.00,,,0.05,NetBSD+Arduino,2013-10-01 01:48:00,
2013-09-30 18:53:00,51.7,47.2,29.82,West,270,3.9,19.4,84,0.00,,,0.05,NetBSD+Arduino,2013-10-01 01:53:00,
2013-09-30 18:58:00,51.7,47.8,29.82,NE,45,3.0,13.4,86,0.00,,,0.05,NetBSD+Arduino,2013-10-01 01:58:00,
2013-09-30 19:03:00,51.7,48.2,29.82,West,270,3.9,13.4,87,0.00,,,0.05,NetBSD+Arduino,2013-10-01 02:03:00,
2013-09-30 19:08:00,51.5,48.5,29.82,SW,225,7.8,16.4,89,0.00,,,0.05,NetBSD+Arduino,2013-10-01 02:08:00,
2013-09-30 19:13:00,51.5,48.6,29.82,SW,225,6.3,17.9,89,0.00,,,0.05,NetBSD+Arduino,2013-10-01 02:13:00,
2013-09-30 19:18:00,51.4,48.3,29.82,SW,225,8.7,20.9,89,0.00,,,0.05,NetBSD+Arduino,2013-10-01 02:18:00,
2013-09-30 19:23:00,51.5,48.1,29.83,SW,225,7.2,17.9,88,0.00,,,0.05,NetBSD+Arduino,2013-10-01 02:23:00,
2013-09-30 19:28:00,51.1,48.5,29.82,SW,225,6.3,14.9,90,0.00,,,0.05,NetBSD+Arduino,2013-10-01 02:28:00,
2013-09-30 19:33:00,50.8,48.6,29.83,SW,225,9.3,17.9,91,0.00,,,0.05,NetBSD+Arduino,2013-10-01 02:33:00,
2013-09-30 19:38:00,50.7,48.0,29.83,SW,225,3.3,13.4,90,0.00,,,0.05,NetBSD+Arduino,2013-10-01 02:38:00,
2013-09-30 19:43:00,50.5,47.7,29.83,South,180,3.3,19.4,89,0.00,,,0.05,NetBSD+Arduino,2013-10-01 02:43:00,
2013-09-30 19:48:00,50.5,47.1,29.83,West,270,6.9,17.9,88,0.00,,,0.05,NetBSD+Arduino,2013-10-01 02:48:00,
2013-09-30 19:53:00,50.3,47.2,29.83,SW,225,1.2,10.4,88,0.00,,,0.05,NetBSD+Arduino,2013-10-01 02:53:00,
2013-09-30 19:58:00,50.2,47.2,29.83,SW,225,6.0,17.9,89,0.00,,,0.05,NetBSD+Arduino,2013-10-01 02:58:00,
2013-09-30 20:03:00,50.2,47.1,29.83,SW,225,9.8,19.4,88,0.00,,,0.05,NetBSD+Arduino,2013-10-01 03:03:00,
2013-09-30 20:08:00,50.2,47.4,29.83,SW,225,4.8,14.9,89,0.00,,,0.05,NetBSD+Arduino,2013-10-01 03:08:00,
2013-09-30 20:13:00,50.3,47.4,29.84,SW,225,7.5,14.9,89,0.00,,,0.05,NetBSD+Arduino,2013-10-01 03:13:00,
2013-09-30 20:18:00,50.5,47.5,29.84,SW,225,6.9,19.4,89,0.00,,,0.05,NetBSD+Arduino,2013-10-01 03:18:00,
2013-09-30 20:23:00,50.7,47.6,29.84,SW,225,12.2,20.9,89,0.00,,,0.05,NetBSD+Arduino,2013-10-01 03:23:00,
2013-09-30 20:28:00,50.9,47.4,29.84,SW,225,12.8,19.4,87,0.00,,,0.05,NetBSD+Arduino,2013-10-01 03:28:00,
2013-09-30 20:33:00,51.1,47.2,29.84,NW,315,1.2,19.4,86,0.00,,,0.05,NetBSD+Arduino,2013-10-01 03:33:00,
2013-09-30 20:38:00,51.0,47.1,29.84,SW,225,6.0,13.4,86,0.00,,,0.05,NetBSD+Arduino,2013-10-01 03:38:00,
2013-09-30 20:43:00,50.8,47.3,29.85,SW,225,2.7,13.4,87,0.00,,,0.05,NetBSD+Arduino,2013-10-01 03:43:00,
2013-09-30 20:48:00,50.8,47.1,29.85,SW,225,3.3,11.9,87,0.00,,,0.05,NetBSD+Arduino,2013-10-01 03:48:00,
2013-09-30 20:53:00,50.7,47.0,29.86,SW,225,4.8,17.9,87,0.00,,,0.05,NetBSD+Arduino,2013-10-01 03:53:00,
2013-09-30 20:58:00,50.6,46.7,29.86,SW,225,6.0,14.9,86,0.00,,,0.05,NetBSD+Arduino,2013-10-01 03:58:00,
2013-09-30 21:01:00,50.5,46.9,29.86,SW,225,5.4,14.9,87,0.00,,,0.05,NetBSD+Arduino,2013-10-01 04:01:00,
2013-09-30 21:02:00,50.5,46.9,29.86,SW,225,4.2,14.9,87,0.00,,,0.05,NetBSD+Arduino,2013-10-01 04:02:00,
2013-09-30 21:03:00,50.5,46.9,29.86,SW,225,4.2,13.4,87,0.00,,,0.05,NetBSD+Arduino,2013-10-01 04:03:00,
2013-09-30 21:05:00,50.4,46.9,29.85,SW,225,7.2,13.4,87,0.00,,,0.05,NetBSD+Arduino,2013-10-01 04:05:00,
2013-09-30 21:09:00,50.2,46.9,29.85,SW,225,9.8,14.9,88,0.00,,,0.05,NetBSD+Arduino,2013-10-01 04:09:00,
2013-09-30 21:15:00,50.1,46.8,29.85,South,180,5.4,10.4,88,0.00,,,0.05,NetBSD+Arduino,2013-10-01 04:15:00,
2013-09-30 21:20:00,50.0,46.8,29.85,SW,225,9.0,16.4,88,0.00,,,0.05,NetBSD+Arduino,2013-10-01 04:20:00,
2013-09-30 21:25:00,50.0,46.8,29.86,SW,225,4.2,16.4,88,0.00,,,0.05,NetBSD+Arduino,2013-10-01 04:25:00,
2013-09-30 21:30:00,50.0,46.6,29.86,SW,225,4.8,16.4,88,0.00,,,0.05,NetBSD+Arduino,2013-10-01 04:30:00,
2013-09-30 21:35:00,50.0,46.6,29.86,SW,225,6.0,11.9,88,0.00,,,0.05,NetBSD+Arduino,2013-10-01 04:35:00,
2013-09-30 21:40:00,50.1,46.7,29.86,SW,225,3.9,16.4,88,0.00,,,0.05,NetBSD+Arduino,2013-10-01 04:40:00,
2013-09-30 21:45:00,49.9,46.6,29.86,SW,225,2.4,14.9,88,0.00,,,0.05,NetBSD+Arduino,2013-10-01 04:45:00,
2013-09-30 21:50:00,49.9,46.5,29.87,SW,225,5.4,16.4,88,0.00,,,0.05,NetBSD+Arduino,2013-10-01 04:50:00,
2013-09-30 21:55:00,49.8,46.2,29.87,SW,225,6.0,16.4,87,0.00,,,0.05,NetBSD+Arduino,2013-10-01 04:55:00,
2013-09-30 22:00:00,49.6,46.0,29.87,SW,225,6.0,13.4,87,0.00,,,0.05,NetBSD+Arduino,2013-10-01 05:00:00,
2013-09-30 22:05:00,49.6,46.0,29.87,South,180,11.6,13.4,87,0.00,,,0.05,NetBSD+Arduino,2013-10-01 05:05:00,
2013-09-30 22:10:00,49.7,45.6,29.87,SW,225,8.1,14.9,85,0.00,,,0.05,NetBSD+Arduino,2013-10-01 05:10:00,
2013-09-30 22:15:00,49.6,45.8,29.88,SW,225,3.0,13.4,86,0.00,,,0.05,NetBSD+Arduino,2013-10-01 05:15:00,
2013-09-30 22:20:00,49.5,45.7,29.88,SW,225,8.2,16.4,86,0.00,,,0.05,NetBSD+Arduino,2013-10-01 05:20:00,
2013-09-30 22:25:00,49.5,45.9,29.89,SW,225,5.7,14.9,87,0.00,,,0.05,NetBSD+Arduino,2013-10-01 05:25:00,
2013-09-30 22:30:00,49.4,45.7,29.89,SW,225,0.6,13.4,87,0.00,,,0.05,NetBSD+Arduino,2013-10-01 05:30:00,
2013-09-30 22:35:00,49.2,45.8,29.89,South,180,3.9,11.9,87,0.00,,,0.05,NetBSD+Arduino,2013-10-01 05:35:00,
2013-09-30 22:41:00,49.5,46.2,29.89,South,180,2.4,13.4,88,0.00,,,0.05,NetBSD+Arduino,2013-10-01 05:41:00,
2013-09-30 22:47:00,49.5,46.4,29.90,SW,225,5.4,9.0,88,0.00,,,0.05,NetBSD+Arduino,2013-10-01 05:47:00,
2013-09-30 22:52:00,49.6,46.5,29.89,West,270,0.6,17.9,88,0.00,,,0.05,NetBSD+Arduino,2013-10-01 05:52:00,
2013-09-30 22:57:00,49.7,46.4,29.90,SW,225,4.5,16.4,88,0.00,,,0.05,NetBSD+Arduino,2013-10-01 05:57:00,
2013-09-30 23:02:00,49.5,46.4,29.90,SW,225,7.2,14.9,88,0.00,,,0.05,NetBSD+Arduino,2013-10-01 06:02:00,
2013-09-30 23:08:00,49.5,46.4,29.90,SW,225,0.6,11.9,88,0.00,,,0.05,NetBSD+Arduino,2013-10-01 06:08:00,
2013-09-30 23:13:00,49.4,46.5,29.90,SW,225,8.4,14.9,89,0.00,,,0.05,NetBSD+Arduino,2013-10-01 06:13:00,
2013-09-30 23:18:00,49.4,46.5,29.90,SW,225,3.3,11.9,89,0.00,,,0.05,NetBSD+Arduino,2013-10-01 06:18:00,
2013-09-30 23:24:00,49.3,46.5,29.90,SW,225,4.2,10.4,90,0.00,,,0.05,NetBSD+Arduino,2013-10-01 06:24:00,
2013-09-30 23:29:00,49.2,46.4,29.90,SW,225,2.4,11.9,90,0.00,,,0.05,NetBSD+Arduino,2013-10-01 06:29:00,
2013-09-30 23:34:00,49.1,46.4,29.90,West,270,1.2,7.5,90,0.00,,,0.05,NetBSD+Arduino,2013-10-01 06:34:00,
2013-09-30 23:39:00,49.0,46.3,29.90,South,180,6.6,10.4,90,0.00,,,0.05,NetBSD+Arduino,2013-10-01 06:39:00,
2013-09-30 23:44:00,49.0,46.2,29.90,SW,225,3.9,9.0,90,0.00,,,0.05,NetBSD+Arduino,2013-10-01 06:44:00,
2013-09-30 23:49:00,48.7,46.2,29.90,West,270,2.4,7.5,91,0.00,,,0.05,NetBSD+Arduino,2013-10-01 06:49:00,
2013-09-30 23:54:00,48.5,46.2,29.90,South,180,3.9,9.0,91,0.00,,,0.05,NetBSD+Arduino,2013-10-01 06:54:00,
2013-09-30 23:59:00,48.3,46.3,29.90,South,180,0.6,9.0,92,0.00,,,0.05,NetBSD+Arduino,2013-10-01 06:59:00,